createdAt,value
2023-05-05T00:02:27.447Z,7.95
2023-05-05T00:04:55.533Z,7.95
2023-05-05T00:07:23.230Z,7.95
2023-05-05T00:09:51.051Z,7.92
2023-05-05T00:12:18.771Z,7.91
2023-05-05T00:14:46.530Z,7.95
2023-05-05T00:17:14.330Z,7.95
2023-05-05T00:19:42.156Z,7.96
2023-05-05T00:22:12.494Z,7.90
2023-05-05T00:24:40.334Z,7.94
2023-05-05T00:27:08.076Z,7.89
2023-05-05T00:29:36.456Z,7.86
2023-05-05T00:32:04.364Z,7.84
2023-05-05T00:34:32.156Z,7.79
2023-05-05T00:37:00.820Z,7.69
2023-05-05T00:39:28.553Z,7.70
2023-05-05T00:41:56.433Z,7.63
2023-05-05T00:44:37.390Z,7.65
2023-05-05T00:47:05.712Z,7.61
2023-05-05T00:49:35.500Z,7.57
2023-05-05T00:52:04.306Z,7.57
2023-05-05T00:54:32.212Z,7.52
2023-05-05T00:57:03.187Z,7.46
2023-05-05T00:59:31.636Z,7.48
2023-05-05T01:01:59.959Z,7.45
2023-05-05T01:04:28.098Z,7.44
2023-05-05T01:07:02.220Z,7.45
2023-05-05T01:09:42.549Z,7.44
2023-05-05T01:12:19.513Z,7.39
2023-05-05T01:15:02.953Z,7.34
2023-05-05T01:17:43.213Z,7.32
2023-05-05T01:20:18.990Z,7.35
2023-05-05T01:22:47.854Z,7.31
2023-05-05T01:25:41.731Z,7.34
2023-05-05T01:28:28.683Z,7.38
2023-05-05T01:31:05.916Z,7.38
2023-05-05T01:33:41.005Z,7.34
2023-05-05T01:36:13.732Z,7.38
2023-05-05T01:38:44.504Z,7.40
2023-05-05T01:41:17.783Z,7.41
2023-05-05T01:43:50.021Z,7.42
2023-05-05T01:46:19.394Z,7.35
2023-05-05T01:48:48.640Z,7.38
2023-05-05T01:51:18.094Z,7.35
2023-05-05T01:53:47.421Z,7.34
2023-05-05T01:56:16.511Z,7.35
2023-05-05T01:58:45.413Z,7.33
2023-05-05T02:01:13.861Z,7.33
2023-05-05T02:03:42.445Z,7.37
2023-05-05T02:06:10.489Z,7.39
2023-05-05T02:08:39.784Z,7.42
2023-05-05T02:11:09.695Z,7.42
2023-05-05T02:13:39.623Z,7.42
2023-05-05T02:16:07.686Z,7.44
2023-05-05T02:18:36.246Z,7.52
2023-05-05T02:21:04.365Z,7.57
2023-05-05T02:23:33.460Z,7.60
2023-05-05T02:26:06.664Z,7.58
2023-05-05T02:28:42.392Z,7.59
2023-05-05T02:31:10.957Z,7.63
2023-05-05T02:33:39.673Z,7.64
2023-05-05T02:36:13.016Z,7.73
2023-05-05T02:38:54.856Z,7.85
2023-05-05T02:41:25.725Z,8.00
2023-05-05T02:43:55.462Z,8.24
2023-05-05T02:46:23.978Z,8.56
2023-05-05T02:48:52.682Z,9.01
2023-05-05T02:51:20.658Z,9.52
2023-05-05T02:53:48.612Z,10.39
2023-05-05T02:56:39.010Z,11.10
2023-05-05T02:59:16.440Z,11.91
2023-05-05T03:01:57.575Z,12.14
2023-05-05T03:05:01.712Z,11.76
2023-05-05T03:07:48.120Z,11.39
2023-05-05T03:10:18.938Z,11.10
2023-05-05T03:12:54.019Z,10.89
2023-05-05T03:15:41.608Z,10.72
2023-05-05T03:18:13.069Z,10.59
2023-05-05T03:20:44.528Z,10.51
2023-05-05T03:23:15.106Z,10.54
2023-05-05T03:25:46.791Z,10.61
2023-05-05T03:28:22.585Z,10.74
2023-05-05T03:30:51.022Z,11.12
2023-05-05T03:33:19.929Z,11.96
2023-05-05T03:35:48.065Z,13.32
2023-05-05T03:38:15.877Z,14.87
2023-05-05T03:40:45.006Z,16.08
2023-05-05T03:43:17.497Z,16.42
2023-05-05T03:45:45.366Z,16.25
2023-05-05T03:48:13.679Z,16.19
2023-05-05T03:50:45.253Z,15.54
2023-05-05T03:53:14.462Z,15.73
2023-05-05T03:55:43.423Z,16.47
2023-05-05T03:58:12.267Z,17.24
2023-05-05T04:00:40.042Z,17.56
2023-05-05T04:03:08.036Z,18.10
2023-05-05T04:05:36.130Z,18.34
2023-05-05T04:08:04.146Z,18.34
2023-05-05T04:10:32.331Z,18.56
2023-05-05T04:13:01.425Z,18.79
2023-05-05T04:15:31.152Z,19.07
2023-05-05T04:17:59.038Z,19.39
2023-05-05T04:20:27.572Z,19.54
2023-05-05T04:23:00.389Z,19.82
2023-05-05T04:25:30.525Z,19.96
2023-05-05T04:28:02.534Z,19.69
2023-05-05T04:30:31.730Z,18.78
2023-05-05T04:33:03.003Z,17.87
2023-05-05T04:35:31.465Z,17.40
2023-05-05T04:38:02.061Z,17.29
2023-05-05T04:40:31.456Z,17.24
2023-05-05T04:42:59.959Z,17.64
2023-05-05T04:45:27.942Z,17.86
2023-05-05T04:47:56.058Z,17.54
2023-05-05T04:50:23.853Z,16.77
2023-05-05T04:52:52.767Z,16.30
2023-05-05T04:55:21.432Z,16.20
2023-05-05T04:57:49.280Z,16.06
2023-05-05T05:00:17.297Z,16.11
2023-05-05T05:02:45.071Z,16.12
2023-05-05T05:05:12.883Z,16.25
2023-05-05T05:07:40.966Z,16.31
2023-05-05T05:10:09.524Z,16.58
2023-05-05T05:12:37.649Z,16.91
2023-05-05T05:15:06.304Z,16.95
2023-05-05T05:17:36.274Z,16.42
2023-05-05T05:20:05.145Z,15.94
2023-05-05T05:22:35.045Z,15.96
2023-05-05T05:25:03.904Z,15.73
2023-05-05T05:27:31.798Z,16.05
2023-05-05T05:29:59.630Z,16.16
2023-05-05T05:32:28.241Z,16.43
2023-05-05T05:34:56.473Z,16.22
2023-05-05T05:37:24.376Z,16.06
2023-05-05T05:39:55.656Z,15.94
2023-05-05T05:42:24.957Z,15.50
2023-05-05T05:44:53.603Z,14.62
2023-05-05T05:47:21.463Z,13.56
2023-05-05T05:49:50.580Z,12.85
2023-05-05T05:52:18.362Z,12.43
2023-05-05T05:54:46.374Z,12.54
2023-05-05T05:57:14.225Z,12.62
2023-05-05T05:59:42.254Z,12.65
2023-05-05T06:02:10.573Z,12.46
2023-05-05T06:04:38.673Z,12.40
2023-05-05T06:07:06.525Z,12.51
2023-05-05T06:09:34.492Z,12.34
2023-05-05T06:12:03.987Z,12.10
2023-05-05T06:14:32.592Z,11.71
2023-05-05T06:17:03.197Z,11.57
2023-05-05T06:19:33.300Z,11.48
2023-05-05T06:22:01.295Z,11.82
2023-05-05T06:24:29.339Z,11.83
2023-05-05T06:26:59.421Z,11.47
2023-05-05T06:29:27.222Z,11.21
2023-05-05T06:31:55.305Z,11.04
2023-05-05T06:34:23.088Z,10.77
2023-05-05T06:36:50.948Z,10.44
2023-05-05T06:39:18.784Z,10.31
2023-05-05T06:41:46.540Z,10.20
2023-05-05T06:44:14.364Z,10.11
2023-05-05T06:46:43.933Z,10.17
2023-05-05T06:49:11.846Z,10.20
2023-05-05T06:51:41.049Z,10.06
2023-05-05T06:54:29.565Z,10.10
2023-05-05T06:56:59.408Z,10.17
2023-05-05T06:59:27.513Z,10.25
2023-05-05T07:01:55.202Z,10.35
2023-05-05T07:04:23.168Z,10.28
2023-05-05T07:06:50.924Z,10.55
2023-05-05T07:09:18.809Z,11.37
2023-05-05T07:11:46.781Z,12.36
2023-05-05T07:14:14.599Z,12.55
2023-05-05T07:16:42.445Z,12.76
2023-05-05T07:19:10.235Z,12.58
2023-05-05T07:21:39.781Z,12.68
2023-05-05T07:24:07.767Z,12.64
2023-05-05T07:26:35.760Z,12.36
2023-05-05T07:29:04.670Z,11.92
2023-05-05T07:31:32.559Z,11.73
2023-05-05T07:34:00.757Z,11.54
2023-05-05T07:36:28.676Z,11.54
2023-05-05T07:38:56.646Z,11.63
2023-05-05T07:41:24.446Z,11.48
2023-05-05T07:43:52.245Z,11.25
2023-05-05T07:46:20.134Z,11.05
2023-05-05T07:48:48.009Z,11.37
2023-05-05T07:51:16.284Z,11.62
2023-05-05T07:53:44.135Z,11.79
2023-05-05T07:56:11.905Z,11.70
2023-05-05T07:58:39.692Z,11.20
2023-05-05T08:01:10.954Z,11.05
2023-05-05T08:03:38.950Z,10.74
2023-05-05T08:06:09.585Z,10.89
2023-05-05T08:08:38.018Z,10.71
2023-05-05T08:11:06.725Z,10.56
2023-05-05T08:13:34.893Z,10.33
2023-05-05T08:16:02.868Z,10.14
2023-05-05T08:18:30.733Z,9.91
2023-05-05T08:20:58.476Z,9.69
2023-05-05T08:23:26.219Z,9.53
2023-05-05T08:25:54.023Z,9.42
2023-05-05T08:28:23.110Z,9.25
2023-05-05T08:30:51.040Z,9.15
2023-05-05T08:33:18.847Z,9.20
2023-05-05T08:35:46.756Z,9.27
2023-05-05T08:38:14.668Z,9.14
2023-05-05T08:40:42.857Z,9.00
2023-05-05T08:43:11.432Z,8.77
2023-05-05T08:45:42.502Z,8.71
2023-05-05T08:48:10.395Z,8.65
2023-05-05T08:50:40.145Z,8.64
2023-05-05T08:53:15.543Z,8.40
2023-05-05T08:55:53.415Z,8.22
2023-05-05T08:58:23.400Z,8.11
2023-05-05T09:00:52.019Z,8.10
2023-05-05T09:03:20.280Z,8.09
2023-05-05T09:05:48.241Z,8.15
2023-05-05T09:08:16.441Z,8.33
2023-05-05T09:10:44.925Z,8.34
2023-05-05T09:13:13.342Z,8.46
2023-05-05T09:15:42.267Z,8.64
2023-05-05T09:18:12.182Z,8.57
2023-05-05T09:20:41.350Z,8.56
2023-05-05T09:23:12.758Z,8.56
2023-05-05T09:25:41.709Z,8.35
2023-05-05T09:28:15.149Z,8.11
2023-05-05T09:30:47.094Z,7.87
2023-05-05T09:33:14.934Z,7.65
2023-05-05T09:35:51.191Z,7.19
2023-05-05T09:38:20.253Z,7.05
2023-05-05T09:40:49.775Z,6.93
2023-05-05T09:43:18.932Z,7.04
2023-05-05T09:45:48.901Z,7.23
2023-05-05T09:48:31.260Z,7.47
2023-05-05T09:50:59.701Z,7.84
2023-05-05T09:53:28.221Z,8.16
2023-05-05T09:55:57.405Z,8.32
2023-05-05T09:58:30.740Z,8.52
2023-05-05T10:00:59.452Z,8.59
2023-05-05T10:03:27.314Z,8.73
2023-05-05T10:05:57.227Z,8.91
2023-05-05T10:08:26.458Z,8.91
2023-05-05T10:11:00.645Z,9.19
2023-05-05T10:13:28.928Z,9.40
2023-05-05T10:15:58.174Z,9.54
2023-05-05T10:18:27.599Z,9.66
2023-05-05T10:20:58.648Z,9.81
2023-05-05T10:24:06.192Z,9.86
2023-05-05T10:26:35.234Z,9.88
2023-05-05T10:29:03.288Z,9.84
2023-05-05T10:31:47.256Z,9.70
2023-05-05T10:34:29.829Z,9.63
2023-05-05T10:36:57.814Z,9.64
2023-05-05T10:39:26.898Z,9.33
2023-05-05T10:41:54.775Z,9.16
2023-05-05T10:44:23.152Z,9.33
2023-05-05T10:46:51.400Z,9.45
2023-05-05T10:49:37.878Z,9.57
2023-05-05T10:52:28.692Z,9.56
2023-05-05T10:55:12.261Z,9.61
2023-05-05T10:57:42.088Z,9.57
2023-05-05T11:00:10.991Z,9.59
2023-05-05T11:02:38.972Z,9.43
2023-05-05T11:05:25.944Z,9.24
2023-05-05T11:07:53.676Z,9.20
2023-05-05T11:10:23.190Z,9.22
2023-05-05T11:13:03.251Z,9.17
2023-05-05T11:15:31.304Z,9.33
2023-05-05T11:18:07.356Z,9.50
2023-05-05T11:20:43.269Z,9.80
2023-05-05T11:23:13.358Z,9.66
2023-05-05T11:25:45.446Z,9.64
2023-05-05T11:28:15.052Z,9.53
2023-05-05T11:30:55.046Z,9.50
2023-05-05T11:33:39.919Z,9.07
2023-05-05T11:36:09.543Z,8.80
2023-05-05T11:38:52.432Z,8.68
2023-05-05T11:41:33.595Z,8.62
2023-05-05T11:44:30.859Z,8.65
2023-05-05T11:47:02.307Z,8.63
2023-05-05T11:49:47.757Z,8.57
2023-05-05T11:52:15.655Z,8.62
2023-05-05T11:54:49.328Z,8.65
2023-05-05T11:57:21.326Z,8.53
2023-05-05T12:00:07.733Z,8.63
2023-05-05T12:02:41.999Z,8.63
2023-05-05T12:05:09.922Z,8.69
2023-05-05T12:07:37.805Z,8.70
2023-05-05T12:10:06.306Z,8.66
2023-05-05T12:12:38.730Z,8.71
2023-05-05T12:15:08.302Z,8.88
2023-05-05T12:17:41.055Z,8.76
2023-05-05T12:20:10.586Z,8.63
2023-05-05T12:22:38.882Z,8.39
2023-05-05T12:25:08.135Z,8.34
2023-05-05T12:27:36.297Z,8.28
2023-05-05T12:30:18.125Z,8.35
2023-05-05T12:32:46.204Z,8.38
2023-05-05T12:35:14.585Z,8.45
2023-05-05T12:37:43.621Z,8.65
2023-05-05T12:40:45.188Z,8.52
2023-05-05T12:43:29.485Z,8.21
2023-05-05T12:46:12.499Z,8.25
2023-05-05T12:48:52.850Z,8.24
2023-05-05T12:51:27.354Z,7.99
2023-05-05T12:54:09.994Z,8.06
2023-05-05T12:56:40.708Z,8.12
2023-05-05T12:59:23.951Z,8.02
2023-05-05T13:01:56.341Z,8.05
2023-05-05T13:04:27.876Z,8.11
2023-05-05T13:07:13.027Z,8.01
2023-05-05T13:09:42.558Z,8.05
2023-05-05T13:12:12.965Z,7.88
2023-05-05T13:14:42.147Z,7.84
2023-05-05T13:17:11.566Z,7.60
2023-05-05T13:19:46.550Z,7.61
2023-05-05T13:22:16.177Z,7.64
2023-05-05T13:24:52.174Z,7.68
2023-05-05T13:27:24.485Z,7.73
2023-05-05T13:29:52.397Z,7.69
2023-05-05T13:32:21.516Z,7.77
2023-05-05T13:35:00.838Z,7.77
2023-05-05T13:37:54.861Z,7.50
2023-05-05T13:40:25.212Z,7.25
2023-05-05T13:42:53.855Z,7.51
2023-05-05T13:45:21.822Z,7.38
2023-05-05T13:47:49.713Z,7.21
2023-05-05T13:50:18.458Z,7.07
2023-05-05T13:52:46.377Z,7.00
2023-05-05T13:55:14.186Z,7.01
2023-05-05T13:57:42.456Z,6.97
2023-05-05T14:00:10.744Z,7.12
2023-05-05T14:02:38.601Z,7.23
2023-05-05T14:05:07.530Z,7.37
2023-05-05T14:07:35.484Z,7.30
2023-05-05T14:10:03.341Z,7.36
2023-05-05T14:12:32.556Z,7.38
2023-05-05T14:15:02.718Z,7.22
2023-05-05T14:17:38.110Z,7.18
2023-05-05T14:20:09.543Z,7.19
2023-05-05T14:22:37.569Z,7.25
2023-05-05T14:25:06.408Z,7.26
2023-05-05T14:27:34.508Z,7.29
2023-05-05T14:30:03.524Z,7.34
2023-05-05T14:32:33.225Z,7.44
2023-05-05T14:35:01.114Z,7.50
2023-05-05T14:37:28.999Z,7.33
2023-05-05T14:39:56.839Z,7.24
2023-05-05T14:42:25.420Z,7.21
2023-05-05T14:44:53.693Z,7.28
2023-05-05T14:47:21.545Z,7.14
2023-05-05T14:49:49.547Z,7.10
2023-05-05T14:52:17.409Z,6.90
2023-05-05T14:54:45.218Z,6.82
2023-05-05T14:57:13.073Z,6.81
2023-05-05T14:59:40.956Z,6.73
2023-05-05T15:02:08.866Z,6.72
2023-05-05T15:04:36.805Z,6.62
2023-05-05T15:07:18.211Z,6.71
2023-05-05T15:09:46.067Z,6.70
2023-05-05T15:12:13.943Z,6.78
2023-05-05T15:14:42.501Z,6.81
2023-05-05T15:17:13.613Z,6.81
2023-05-05T15:19:41.779Z,6.77
2023-05-05T15:22:09.631Z,6.62
2023-05-05T15:24:37.462Z,6.53
2023-05-05T15:27:05.608Z,6.36
2023-05-05T15:29:33.567Z,6.42
2023-05-05T15:32:01.609Z,6.37
2023-05-05T15:34:29.549Z,6.30
2023-05-05T15:36:57.490Z,6.23
2023-05-05T15:39:25.494Z,6.19
2023-05-05T15:42:00.696Z,6.15
2023-05-05T15:44:28.605Z,6.10
2023-05-05T15:46:56.538Z,5.99
2023-05-05T15:49:27.559Z,5.98
2023-05-05T15:51:55.294Z,6.01
2023-05-05T15:54:23.082Z,5.95
2023-05-05T15:56:50.786Z,5.90
2023-05-05T15:59:19.206Z,5.91
2023-05-05T16:01:47.691Z,5.88
2023-05-05T16:04:54.050Z,5.80
2023-05-05T16:07:21.898Z,5.78
2023-05-05T16:09:49.758Z,5.70
2023-05-05T16:12:17.617Z,5.68
2023-05-05T16:14:45.473Z,5.63
2023-05-05T16:17:13.286Z,5.62
2023-05-05T16:19:41.164Z,5.50
2023-05-05T16:22:09.178Z,5.57
2023-05-05T16:24:37.456Z,5.56
2023-05-05T16:27:05.234Z,5.54
2023-05-05T16:29:33.156Z,5.55
2023-05-05T16:32:01.282Z,5.60
2023-05-05T16:34:29.174Z,5.56
2023-05-05T16:36:57.510Z,5.56
2023-05-05T16:39:26.338Z,5.51
2023-05-05T16:41:54.326Z,5.54
2023-05-05T16:44:22.133Z,5.48
2023-05-05T16:46:49.987Z,5.46
2023-05-05T16:49:18.492Z,5.49
2023-05-05T16:51:46.243Z,5.35
2023-05-05T16:54:14.128Z,5.36
2023-05-05T16:56:42.017Z,5.23
2023-05-05T16:59:09.786Z,5.16
2023-05-05T17:01:37.697Z,5.15
2023-05-05T17:04:06.752Z,5.17
2023-05-05T17:06:35.684Z,5.12
2023-05-05T17:09:03.576Z,5.13
2023-05-05T17:11:31.492Z,5.15
2023-05-05T17:13:59.356Z,5.13
2023-05-05T17:16:27.314Z,5.06
2023-05-05T17:18:55.182Z,5.10
2023-05-05T17:21:23.572Z,5.05
2023-05-05T17:23:51.457Z,5.03
2023-05-05T17:26:19.359Z,4.97
2023-05-05T17:28:47.277Z,4.93
2023-05-05T17:31:25.074Z,4.87
2023-05-05T17:33:53.050Z,4.85
2023-05-05T17:36:21.094Z,4.84
2023-05-05T17:38:48.920Z,4.81
2023-05-05T17:41:17.042Z,4.78
2023-05-05T17:43:44.926Z,4.81
2023-05-05T17:46:12.729Z,4.77
2023-05-05T17:48:40.815Z,4.77
2023-05-05T17:51:08.805Z,4.79
2023-05-05T17:53:36.661Z,4.77
2023-05-05T17:56:06.514Z,4.71
2023-05-05T17:58:36.077Z,4.64
2023-05-05T18:01:06.384Z,4.63
2023-05-05T18:03:39.211Z,4.62
2023-05-05T18:06:11.693Z,4.63
2023-05-05T18:08:39.824Z,4.58
2023-05-05T18:11:07.814Z,4.51
2023-05-05T18:13:35.764Z,4.50
2023-05-05T18:16:03.993Z,4.45
2023-05-05T18:18:37.892Z,4.39
2023-05-05T18:21:12.357Z,4.09
2023-05-05T18:23:40.637Z,4.30
2023-05-05T18:26:08.870Z,4.34
2023-05-05T18:28:40.333Z,4.29
2023-05-05T18:31:22.014Z,4.25
2023-05-05T18:33:52.896Z,4.24
2023-05-05T18:36:23.914Z,4.24
2023-05-05T18:38:52.190Z,4.20
2023-05-05T18:41:25.564Z,4.21
2023-05-05T18:43:53.571Z,4.23
2023-05-05T18:46:35.986Z,4.14
2023-05-05T18:49:14.415Z,4.15
2023-05-05T18:51:42.847Z,4.11
2023-05-05T18:54:10.929Z,4.07
2023-05-05T18:56:41.729Z,3.79
2023-05-05T18:59:25.098Z,3.91
2023-05-05T19:01:59.538Z,3.92
2023-05-05T19:04:44.083Z,4.01
2023-05-05T19:07:24.093Z,3.99
2023-05-05T19:10:02.223Z,3.91
2023-05-05T19:12:33.073Z,3.99
2023-05-05T19:15:05.075Z,4.00
2023-05-05T19:17:33.632Z,3.88
2023-05-05T19:20:01.650Z,3.87
2023-05-05T19:22:32.504Z,3.85
2023-05-05T19:25:04.000Z,3.78
2023-05-05T19:27:43.193Z,3.54
2023-05-05T19:30:11.845Z,3.79
2023-05-05T19:32:46.737Z,3.57
2023-05-05T19:35:24.355Z,3.78
2023-05-05T19:39:00.023Z,3.39
2023-05-05T19:41:37.096Z,3.82
2023-05-05T19:48:24.749Z,3.44
2023-05-05T19:51:08.587Z,3.51
2023-05-05T19:54:03.540Z,3.20
2023-05-05T19:57:45.111Z,3.47
2023-05-05T20:00:40.935Z,3.30
2023-05-05T20:03:10.089Z,3.12
2023-05-05T20:05:55.062Z,3.38
2023-05-05T20:08:52.303Z,3.13
2023-05-05T20:11:36.125Z,3.18
2023-05-05T20:14:15.921Z,3.11
2023-05-05T20:20:12.937Z,3.45
2023-05-05T20:22:45.345Z,3.18
2023-05-05T20:25:15.418Z,3.44
2023-05-05T20:27:44.521Z,3.37
2023-05-05T20:30:21.896Z,3.41
2023-05-05T20:32:58.403Z,3.25
2023-05-05T20:35:37.912Z,2.99
2023-05-05T20:38:09.829Z,3.28
2023-05-05T20:40:53.530Z,3.06
2023-05-05T20:43:32.086Z,3.08
2023-05-05T20:46:07.409Z,3.17
2023-05-05T20:48:44.645Z,3.08
2023-05-05T20:51:12.777Z,3.30
2023-05-05T20:53:43.750Z,3.18
2023-05-05T20:56:13.686Z,3.28
2023-05-05T20:58:41.554Z,3.23
2023-05-05T21:01:30.079Z,3.23
2023-05-05T21:03:58.209Z,3.18
2023-05-05T21:06:26.135Z,3.11
2023-05-05T21:08:53.898Z,3.15
2023-05-05T21:11:21.784Z,3.14
2023-05-05T21:13:58.514Z,3.12
2023-05-05T21:16:26.470Z,3.10
2023-05-05T21:18:54.430Z,3.06
2023-05-05T21:21:23.948Z,2.98
2023-05-05T21:23:51.885Z,2.96
2023-05-05T21:26:19.721Z,2.93
2023-05-05T21:28:47.527Z,2.96
2023-05-05T21:33:48.986Z,2.93
2023-05-05T21:36:17.813Z,2.85
2023-05-05T21:38:46.116Z,2.88
2023-05-05T21:41:29.807Z,2.86
2023-05-05T21:44:01.036Z,2.85
2023-05-05T21:46:29.178Z,2.90
2023-05-05T21:48:57.248Z,2.81
2023-05-05T21:51:25.441Z,2.77
2023-05-05T21:53:53.258Z,2.73
2023-05-05T21:56:21.053Z,2.75
2023-05-05T21:58:48.807Z,2.75
2023-05-05T22:01:16.547Z,2.75
2023-05-05T22:03:49.424Z,2.65
2023-05-05T22:06:17.538Z,2.66
2023-05-05T22:08:45.326Z,2.60
2023-05-05T22:11:13.237Z,2.61
2023-05-05T22:13:41.299Z,2.58
2023-05-05T22:16:09.958Z,2.54
2023-05-05T22:18:38.177Z,2.49
2023-05-05T22:21:06.263Z,2.47
2023-05-05T22:23:34.145Z,2.41
2023-05-05T22:26:02.072Z,2.42
2023-05-05T22:28:33.141Z,2.39
2023-05-05T22:31:01.219Z,2.37
2023-05-05T22:33:29.045Z,2.31
2023-05-05T22:35:57.574Z,2.23
2023-05-05T22:38:27.936Z,2.28
2023-05-05T22:40:55.761Z,2.27
2023-05-05T22:43:23.550Z,2.21
2023-05-05T22:45:51.416Z,2.18
2023-05-05T22:48:19.243Z,2.17
2023-05-05T22:50:47.189Z,2.18
2023-05-05T22:53:14.997Z,2.17
2023-05-05T22:55:42.733Z,2.08
2023-05-05T22:58:10.504Z,2.10
2023-05-05T23:00:38.318Z,2.03
2023-05-05T23:03:06.255Z,2.04
2023-05-05T23:05:34.758Z,1.99
2023-05-05T23:08:02.601Z,1.94
2023-05-05T23:10:30.833Z,1.95
2023-05-05T23:12:58.737Z,1.88
2023-05-05T23:15:26.675Z,1.88
2023-05-05T23:17:54.708Z,1.77
2023-05-05T23:20:22.662Z,1.80
2023-05-05T23:22:50.583Z,1.74
2023-05-05T23:25:18.758Z,1.70
2023-05-05T23:27:48.537Z,1.70
2023-05-05T23:30:16.724Z,1.69
2023-05-05T23:32:45.125Z,1.62
2023-05-05T23:35:13.230Z,1.60
2023-05-05T23:37:41.112Z,1.44
2023-05-05T23:40:09.395Z,1.48
2023-05-05T23:42:37.139Z,1.50
2023-05-05T23:45:05.197Z,1.44
2023-05-05T23:47:33.057Z,1.42
2023-05-05T23:50:01.031Z,1.38
2023-05-05T23:52:29.685Z,1.41
2023-05-05T23:54:57.501Z,1.34
2023-05-05T23:57:25.483Z,1.33
2023-05-05T23:59:53.320Z,1.30
